Main page
METAR-TAF:

METAR-TAF

Airports :

Hartford–Brainard Airport

Hartford, Connecticut, United States

latitude: 41-44-06N, longitude: 072-39-06W, elevation: 16 ft

Current weather observation

The report was made 38 minutes ago, at 04:53 UTC
Wind 6 mph from the Southeast
Temperature 57°F
Humidity 94%
Pressure 29.91 in. Hg
Visibility: 9 miles
Few clouds at a height of 1700 ft
Broken clouds at a height of 6000 ft
Overcast at a height of 8000 ft
light rain

METAR: KHFD 210453Z AUTO 13005KT 9SM -RA FEW017 BKN060 OVC080 14/13 A2991 RMK AO2 SLP128 P0006 T01440128 402000139

Time: 01:31 (05:31 UTC)


TAF: missing

Weather observations and forecasts of more than 4000 airports (METAR and TAF reports).

The available stations are represented by yellow and red dots on the map.

Hover mouse over dot to see the name of the station.

Then click to see weather observations and forecasts.

To change the map : click on the green buttons with a black cross to zoom in, on the green button with a dash to zoom out, or on the green arrows for adjacent maps.


METAR-TAF: